sensor_id;sensor_type;location;lat;lon;timestamp;P1;durP1;ratioP1;P2;durP2;ratioP2
46391;SDS011;32098;49.448;7.904;2023-05-07T00:01:12;4.72;;;2.80;;
46391;SDS011;32098;49.448;7.904;2023-05-07T00:03:38;3.42;;;2.60;;
46391;SDS011;32098;49.448;7.904;2023-05-07T00:06:05;4.60;;;3.08;;
46391;SDS011;32098;49.448;7.904;2023-05-07T00:08:32;3.13;;;2.83;;
46391;SDS011;32098;49.448;7.904;2023-05-07T00:10:59;2.67;;;2.40;;
46391;SDS011;32098;49.448;7.904;2023-05-07T00:13:25;3.88;;;2.60;;
46391;SDS011;32098;49.448;7.904;2023-05-07T00:15:52;3.13;;;2.78;;
46391;SDS011;32098;49.448;7.904;2023-05-07T00:18:18;5.95;;;2.97;;
46391;SDS011;32098;49.448;7.904;2023-05-07T00:20:48;3.63;;;2.88;;
46391;SDS011;32098;49.448;7.904;2023-05-07T00:23:15;4.68;;;2.83;;
46391;SDS011;32098;49.448;7.904;2023-05-07T00:25:41;3.08;;;2.63;;
46391;SDS011;32098;49.448;7.904;2023-05-07T00:28:08;4.05;;;2.88;;
46391;SDS011;32098;49.448;7.904;2023-05-07T00:30:34;5.20;;;2.70;;
46391;SDS011;32098;49.448;7.904;2023-05-07T00:33:01;4.25;;;3.00;;
46391;SDS011;32098;49.448;7.904;2023-05-07T00:35:28;4.45;;;2.58;;
46391;SDS011;32098;49.448;7.904;2023-05-07T00:37:54;3.20;;;2.47;;
46391;SDS011;32098;49.448;7.904;2023-05-07T00:40:21;2.97;;;2.60;;
46391;SDS011;32098;49.448;7.904;2023-05-07T00:42:48;6.07;;;2.75;;
46391;SDS011;32098;49.448;7.904;2023-05-07T00:45:15;4.93;;;2.95;;
46391;SDS011;32098;49.448;7.904;2023-05-07T00:47:42;3.90;;;3.03;;
46391;SDS011;32098;49.448;7.904;2023-05-07T00:50:10;3.75;;;3.38;;
46391;SDS011;32098;49.448;7.904;2023-05-07T00:52:39;4.28;;;2.83;;
46391;SDS011;32098;49.448;7.904;2023-05-07T00:55:05;4.18;;;2.72;;
46391;SDS011;32098;49.448;7.904;2023-05-07T00:57:36;3.50;;;2.88;;
46391;SDS011;32098;49.448;7.904;2023-05-07T01:00:07;3.92;;;2.95;;
46391;SDS011;32098;49.448;7.904;2023-05-07T01:02:39;3.75;;;2.80;;
46391;SDS011;32098;49.448;7.904;2023-05-07T01:05:07;3.78;;;3.00;;
46391;SDS011;32098;49.448;7.904;2023-05-07T01:07:36;4.47;;;3.28;;
46391;SDS011;32098;49.448;7.904;2023-05-07T01:10:04;3.00;;;2.80;;
46391;SDS011;32098;49.448;7.904;2023-05-07T01:12:32;7.72;;;3.10;;
46391;SDS011;32098;49.448;7.904;2023-05-07T01:15:00;5.32;;;3.08;;
46391;SDS011;32098;49.448;7.904;2023-05-07T01:17:28;4.72;;;2.78;;
46391;SDS011;32098;49.448;7.904;2023-05-07T01:19:55;3.33;;;3.00;;
46391;SDS011;32098;49.448;7.904;2023-05-07T01:22:37;4.35;;;2.75;;
46391;SDS011;32098;49.448;7.904;2023-05-07T01:25:06;3.57;;;3.03;;
46391;SDS011;32098;49.448;7.904;2023-05-07T01:27:35;4.40;;;2.72;;
46391;SDS011;32098;49.448;7.904;2023-05-07T01:30:04;3.83;;;3.00;;
46391;SDS011;32098;49.448;7.904;2023-05-07T01:35:28;3.90;;;2.92;;
46391;SDS011;32098;49.448;7.904;2023-05-07T01:37:58;3.30;;;3.00;;
46391;SDS011;32098;49.448;7.904;2023-05-07T01:40:25;3.30;;;3.00;;
46391;SDS011;32098;49.448;7.904;2023-05-07T01:42:52;5.77;;;3.13;;
46391;SDS011;32098;49.448;7.904;2023-05-07T01:45:21;3.15;;;2.85;;
46391;SDS011;32098;49.448;7.904;2023-05-07T01:47:48;3.87;;;3.10;;
46391;SDS011;32098;49.448;7.904;2023-05-07T01:50:17;4.57;;;3.07;;
46391;SDS011;32098;49.448;7.904;2023-05-07T01:52:45;4.50;;;2.70;;
46391;SDS011;32098;49.448;7.904;2023-05-07T01:55:13;3.73;;;2.90;;
46391;SDS011;32098;49.448;7.904;2023-05-07T01:57:39;3.93;;;2.70;;
46391;SDS011;32098;49.448;7.904;2023-05-07T02:00:06;3.83;;;3.00;;
46391;SDS011;32098;49.448;7.904;2023-05-07T02:02:41;4.10;;;3.10;;
46391;SDS011;32098;49.448;7.904;2023-05-07T02:05:18;4.93;;;2.97;;
46391;SDS011;32098;49.448;7.904;2023-05-07T02:07:49;3.50;;;3.10;;
46391;SDS011;32098;49.448;7.904;2023-05-07T02:10:16;3.40;;;3.10;;
46391;SDS011;32098;49.448;7.904;2023-05-07T02:12:43;6.60;;;3.37;;
46391;SDS011;32098;49.448;7.904;2023-05-07T02:15:10;4.23;;;3.20;;
46391;SDS011;32098;49.448;7.904;2023-05-07T02:17:39;4.47;;;3.17;;
46391;SDS011;32098;49.448;7.904;2023-05-07T02:20:23;3.30;;;3.00;;
46391;SDS011;32098;49.448;7.904;2023-05-07T02:22:50;5.97;;;3.30;;
46391;SDS011;32098;49.448;7.904;2023-05-07T02:25:16;3.80;;;3.37;;
46391;SDS011;32098;49.448;7.904;2023-05-07T02:27:43;3.33;;;2.83;;
46391;SDS011;32098;49.448;7.904;2023-05-07T02:30:10;3.37;;;3.00;;
46391;SDS011;32098;49.448;7.904;2023-05-07T02:32:37;3.40;;;3.10;;
46391;SDS011;32098;49.448;7.904;2023-05-07T02:35:04;4.23;;;2.50;;
46391;SDS011;32098;49.448;7.904;2023-05-07T02:37:31;4.63;;;2.80;;
46391;SDS011;32098;49.448;7.904;2023-05-07T02:39:58;2.90;;;2.70;;
46391;SDS011;32098;49.448;7.904;2023-05-07T02:42:24;3.17;;;2.70;;
46391;SDS011;32098;49.448;7.904;2023-05-07T02:44:51;3.17;;;2.90;;
46391;SDS011;32098;49.448;7.904;2023-05-07T02:47:18;4.47;;;3.20;;
46391;SDS011;32098;49.448;7.904;2023-05-07T02:49:45;3.23;;;3.00;;
46391;SDS011;32098;49.448;7.904;2023-05-07T02:52:12;4.63;;;3.50;;
46391;SDS011;32098;49.448;7.904;2023-05-07T02:54:38;4.73;;;3.53;;
46391;SDS011;32098;49.448;7.904;2023-05-07T02:57:05;4.10;;;3.33;;
46391;SDS011;32098;49.448;7.904;2023-05-07T02:59:31;3.53;;;3.23;;
46391;SDS011;32098;49.448;7.904;2023-05-07T03:01:58;6.03;;;3.30;;
46391;SDS011;32098;49.448;7.904;2023-05-07T03:04:25;3.40;;;3.10;;
46391;SDS011;32098;49.448;7.904;2023-05-07T03:06:52;5.40;;;2.97;;
46391;SDS011;32098;49.448;7.904;2023-05-07T03:09:18;3.70;;;3.30;;
46391;SDS011;32098;49.448;7.904;2023-05-07T03:11:45;5.57;;;3.23;;
46391;SDS011;32098;49.448;7.904;2023-05-07T03:14:12;3.47;;;3.00;;
46391;SDS011;32098;49.448;7.904;2023-05-07T03:16:38;3.17;;;2.87;;
46391;SDS011;32098;49.448;7.904;2023-05-07T03:19:05;3.83;;;2.60;;
46391;SDS011;32098;49.448;7.904;2023-05-07T03:21:32;3.50;;;2.90;;
46391;SDS011;32098;49.448;7.904;2023-05-07T03:24:00;2.87;;;2.60;;
46391;SDS011;32098;49.448;7.904;2023-05-07T03:26:27;3.10;;;2.60;;
46391;SDS011;32098;49.448;7.904;2023-05-07T03:28:54;4.67;;;2.53;;
46391;SDS011;32098;49.448;7.904;2023-05-07T03:31:21;2.73;;;2.40;;
46391;SDS011;32098;49.448;7.904;2023-05-07T03:33:52;3.70;;;2.83;;
46391;SDS011;32098;49.448;7.904;2023-05-07T03:36:20;3.50;;;3.00;;
46391;SDS011;32098;49.448;7.904;2023-05-07T03:38:47;3.00;;;2.80;;
46391;SDS011;32098;49.448;7.904;2023-05-07T03:41:18;4.57;;;2.90;;
46391;SDS011;32098;49.448;7.904;2023-05-07T03:43:45;3.40;;;3.10;;
46391;SDS011;32098;49.448;7.904;2023-05-07T03:46:12;4.63;;;3.00;;
46391;SDS011;32098;49.448;7.904;2023-05-07T03:48:39;2.93;;;2.20;;
46391;SDS011;32098;49.448;7.904;2023-05-07T03:51:06;4.13;;;2.80;;
46391;SDS011;32098;49.448;7.904;2023-05-07T03:53:33;3.33;;;3.03;;
46391;SDS011;32098;49.448;7.904;2023-05-07T03:55:59;3.27;;;2.97;;
46391;SDS011;32098;49.448;7.904;2023-05-07T03:58:29;4.83;;;3.40;;
46391;SDS011;32098;49.448;7.904;2023-05-07T04:00:58;3.53;;;2.93;;
46391;SDS011;32098;49.448;7.904;2023-05-07T04:03:27;3.70;;;3.33;;
46391;SDS011;32098;49.448;7.904;2023-05-07T04:05:57;3.50;;;3.17;;
46391;SDS011;32098;49.448;7.904;2023-05-07T04:08:23;4.50;;;3.40;;
46391;SDS011;32098;49.448;7.904;2023-05-07T04:10:58;4.63;;;3.10;;
46391;SDS011;32098;49.448;7.904;2023-05-07T04:13:29;3.47;;;3.10;;
46391;SDS011;32098;49.448;7.904;2023-05-07T04:15:58;3.60;;;3.17;;
46391;SDS011;32098;49.448;7.904;2023-05-07T04:18:25;3.60;;;3.10;;
46391;SDS011;32098;49.448;7.904;2023-05-07T04:20:52;3.70;;;3.00;;
46391;SDS011;32098;49.448;7.904;2023-05-07T04:23:19;4.67;;;2.83;;
46391;SDS011;32098;49.448;7.904;2023-05-07T04:25:45;3.47;;;3.13;;
46391;SDS011;32098;49.448;7.904;2023-05-07T04:28:20;3.30;;;3.00;;
46391;SDS011;32098;49.448;7.904;2023-05-07T04:30:49;4.23;;;3.53;;
46391;SDS011;32098;49.448;7.904;2023-05-07T04:33:16;4.00;;;2.93;;
46391;SDS011;32098;49.448;7.904;2023-05-07T04:35:47;4.70;;;2.93;;
46391;SDS011;32098;49.448;7.904;2023-05-07T04:38:14;4.33;;;2.90;;
46391;SDS011;32098;49.448;7.904;2023-05-07T04:40:41;3.37;;;3.07;;
46391;SDS011;32098;49.448;7.904;2023-05-07T04:43:11;3.40;;;3.10;;
46391;SDS011;32098;49.448;7.904;2023-05-07T04:45:44;3.57;;;3.13;;
46391;SDS011;32098;49.448;7.904;2023-05-07T04:48:10;7.23;;;3.13;;
46391;SDS011;32098;49.448;7.904;2023-05-07T04:50:39;4.73;;;3.93;;
46391;SDS011;32098;49.448;7.904;2023-05-07T04:53:07;8.87;;;3.40;;
46391;SDS011;32098;49.448;7.904;2023-05-07T04:55:33;4.83;;;3.47;;
46391;SDS011;32098;49.448;7.904;2023-05-07T04:58:00;3.60;;;3.10;;
46391;SDS011;32098;49.448;7.904;2023-05-07T05:00:31;3.90;;;2.83;;
46391;SDS011;32098;49.448;7.904;2023-05-07T05:02:59;6.63;;;3.00;;
46391;SDS011;32098;49.448;7.904;2023-05-07T05:05:27;3.30;;;3.00;;
46391;SDS011;32098;49.448;7.904;2023-05-07T05:07:54;3.93;;;2.70;;
46391;SDS011;32098;49.448;7.904;2023-05-07T05:10:21;5.33;;;2.73;;
46391;SDS011;32098;49.448;7.904;2023-05-07T05:12:50;3.80;;;2.83;;
46391;SDS011;32098;49.448;7.904;2023-05-07T05:15:18;3.97;;;3.20;;
46391;SDS011;32098;49.448;7.904;2023-05-07T05:17:45;6.20;;;3.50;;
46391;SDS011;32098;49.448;7.904;2023-05-07T05:20:12;4.93;;;3.73;;
46391;SDS011;32098;49.448;7.904;2023-05-07T05:22:40;4.23;;;3.70;;
46391;SDS011;32098;49.448;7.904;2023-05-07T05:25:10;5.63;;;4.13;;
46391;SDS011;32098;49.448;7.904;2023-05-07T05:27:36;4.30;;;3.73;;
46391;SDS011;32098;49.448;7.904;2023-05-07T05:30:04;4.33;;;3.93;;
46391;SDS011;32098;49.448;7.904;2023-05-07T05:32:32;4.40;;;3.70;;
46391;SDS011;32098;49.448;7.904;2023-05-07T05:35:00;4.47;;;3.97;;
46391;SDS011;32098;49.448;7.904;2023-05-07T05:37:28;4.87;;;3.80;;
46391;SDS011;32098;49.448;7.904;2023-05-07T05:39:57;3.77;;;3.47;;
46391;SDS011;32098;49.448;7.904;2023-05-07T05:42:25;3.63;;;3.20;;
46391;SDS011;32098;49.448;7.904;2023-05-07T05:44:53;4.07;;;3.20;;
46391;SDS011;32098;49.448;7.904;2023-05-07T05:47:21;3.70;;;3.40;;
46391;SDS011;32098;49.448;7.904;2023-05-07T05:49:52;3.93;;;3.53;;
46391;SDS011;32098;49.448;7.904;2023-05-07T05:52:19;4.23;;;3.57;;
46391;SDS011;32098;49.448;7.904;2023-05-07T05:54:46;6.30;;;4.43;;
46391;SDS011;32098;49.448;7.904;2023-05-07T05:57:13;5.50;;;3.70;;
46391;SDS011;32098;49.448;7.904;2023-05-07T05:59:39;4.20;;;3.40;;
46391;SDS011;32098;49.448;7.904;2023-05-07T06:02:07;3.90;;;3.10;;
46391;SDS011;32098;49.448;7.904;2023-05-07T06:04:33;3.33;;;3.03;;
46391;SDS011;32098;49.448;7.904;2023-05-07T06:07:01;5.60;;;3.20;;
46391;SDS011;32098;49.448;7.904;2023-05-07T06:09:28;3.43;;;3.10;;
46391;SDS011;32098;49.448;7.904;2023-05-07T06:11:54;3.70;;;3.20;;
46391;SDS011;32098;49.448;7.904;2023-05-07T06:14:23;3.38;;;3.08;;
46391;SDS011;32098;49.448;7.904;2023-05-07T06:16:50;3.50;;;3.20;;
46391;SDS011;32098;49.448;7.904;2023-05-07T06:19:17;4.03;;;3.17;;
46391;SDS011;32098;49.448;7.904;2023-05-07T06:21:50;4.17;;;3.70;;
46391;SDS011;32098;49.448;7.904;2023-05-07T06:24:17;3.72;;;3.10;;
46391;SDS011;32098;49.448;7.904;2023-05-07T06:26:44;4.77;;;3.07;;
46391;SDS011;32098;49.448;7.904;2023-05-07T06:29:12;3.90;;;3.13;;
46391;SDS011;32098;49.448;7.904;2023-05-07T06:31:40;4.18;;;3.40;;
46391;SDS011;32098;49.448;7.904;2023-05-07T06:34:08;4.17;;;3.87;;
46391;SDS011;32098;49.448;7.904;2023-05-07T06:36:37;4.68;;;3.60;;
46391;SDS011;32098;49.448;7.904;2023-05-07T06:39:30;4.53;;;3.38;;
46391;SDS011;32098;49.448;7.904;2023-05-07T06:41:57;3.55;;;3.25;;
46391;SDS011;32098;49.448;7.904;2023-05-07T06:44:29;3.38;;;3.08;;
46391;SDS011;32098;49.448;7.904;2023-05-07T06:47:09;5.97;;;3.08;;
46391;SDS011;32098;49.448;7.904;2023-05-07T06:49:37;3.92;;;2.97;;
46391;SDS011;32098;49.448;7.904;2023-05-07T06:52:04;4.40;;;3.28;;
46391;SDS011;32098;49.448;7.904;2023-05-07T06:54:31;2.97;;;2.63;;
46391;SDS011;32098;49.448;7.904;2023-05-07T06:56:57;3.20;;;2.45;;
46391;SDS011;32098;49.448;7.904;2023-05-07T06:59:26;3.92;;;3.10;;
46391;SDS011;32098;49.448;7.904;2023-05-07T07:01:53;4.03;;;2.45;;
46391;SDS011;32098;49.448;7.904;2023-05-07T07:04:19;2.75;;;2.55;;
46391;SDS011;32098;49.448;7.904;2023-05-07T07:06:56;3.60;;;2.70;;
46391;SDS011;32098;49.448;7.904;2023-05-07T07:09:23;2.97;;;2.78;;
46391;SDS011;32098;49.448;7.904;2023-05-07T07:11:50;4.47;;;2.55;;
46391;SDS011;32098;49.448;7.904;2023-05-07T07:14:18;3.63;;;2.60;;
46391;SDS011;32098;49.448;7.904;2023-05-07T07:16:48;4.03;;;2.38;;
46391;SDS011;32098;49.448;7.904;2023-05-07T07:19:16;3.65;;;2.15;;
46391;SDS011;32098;49.448;7.904;2023-05-07T07:21:44;2.63;;;2.30;;
46391;SDS011;32098;49.448;7.904;2023-05-07T07:24:12;2.92;;;2.63;;
46391;SDS011;32098;49.448;7.904;2023-05-07T07:26:39;2.70;;;2.50;;
46391;SDS011;32098;49.448;7.904;2023-05-07T07:29:06;4.03;;;3.05;;
46391;SDS011;32098;49.448;7.904;2023-05-07T07:31:33;3.40;;;2.13;;
46391;SDS011;32098;49.448;7.904;2023-05-07T07:33:59;3.67;;;2.22;;
46391;SDS011;32098;49.448;7.904;2023-05-07T07:36:26;2.53;;;1.92;;
46391;SDS011;32098;49.448;7.904;2023-05-07T07:39:11;3.05;;;2.10;;
46391;SDS011;32098;49.448;7.904;2023-05-07T07:41:38;4.32;;;2.30;;
46391;SDS011;32098;49.448;7.904;2023-05-07T07:44:05;3.38;;;2.05;;
46391;SDS011;32098;49.448;7.904;2023-05-07T07:46:35;1.90;;;1.75;;
46391;SDS011;32098;49.448;7.904;2023-05-07T07:49:02;3.65;;;2.00;;
46391;SDS011;32098;49.448;7.904;2023-05-07T07:51:29;2.60;;;1.58;;
46391;SDS011;32098;49.448;7.904;2023-05-07T07:53:58;2.88;;;1.88;;
46391;SDS011;32098;49.448;7.904;2023-05-07T07:56:25;4.22;;;2.33;;
46391;SDS011;32098;49.448;7.904;2023-05-07T07:58:52;3.33;;;1.70;;
46391;SDS011;32098;49.448;7.904;2023-05-07T08:01:19;2.08;;;1.85;;
46391;SDS011;32098;49.448;7.904;2023-05-07T08:03:46;3.22;;;2.20;;
46391;SDS011;32098;49.448;7.904;2023-05-07T08:06:13;3.20;;;2.10;;
46391;SDS011;32098;49.448;7.904;2023-05-07T08:08:40;2.10;;;1.90;;
46391;SDS011;32098;49.448;7.904;2023-05-07T08:11:07;3.25;;;1.92;;
46391;SDS011;32098;49.448;7.904;2023-05-07T08:13:35;2.55;;;2.10;;
46391;SDS011;32098;49.448;7.904;2023-05-07T08:16:02;2.55;;;1.52;;
46391;SDS011;32098;49.448;7.904;2023-05-07T08:18:29;2.78;;;1.95;;
46391;SDS011;32098;49.448;7.904;2023-05-07T08:20:59;1.60;;;1.50;;
46391;SDS011;32098;49.448;7.904;2023-05-07T08:23:26;1.70;;;1.55;;
46391;SDS011;32098;49.448;7.904;2023-05-07T08:25:53;2.28;;;1.63;;
46391;SDS011;32098;49.448;7.904;2023-05-07T08:28:19;2.13;;;1.65;;
46391;SDS011;32098;49.448;7.904;2023-05-07T08:30:47;2.75;;;1.85;;
46391;SDS011;32098;49.448;7.904;2023-05-07T08:33:14;2.38;;;1.95;;
46391;SDS011;32098;49.448;7.904;2023-05-07T08:35:41;3.08;;;1.50;;
46391;SDS011;32098;49.448;7.904;2023-05-07T08:38:09;3.22;;;1.80;;
46391;SDS011;32098;49.448;7.904;2023-05-07T08:40:37;4.78;;;1.45;;
46391;SDS011;32098;49.448;7.904;2023-05-07T08:43:08;2.88;;;1.50;;
46391;SDS011;32098;49.448;7.904;2023-05-07T08:45:39;2.40;;;1.70;;
46391;SDS011;32098;49.448;7.904;2023-05-07T08:48:14;2.45;;;1.30;;
46391;SDS011;32098;49.448;7.904;2023-05-07T08:50:45;2.95;;;1.50;;
46391;SDS011;32098;49.448;7.904;2023-05-07T08:53:12;1.60;;;1.50;;
46391;SDS011;32098;49.448;7.904;2023-05-07T08:55:39;3.75;;;1.58;;
46391;SDS011;32098;49.448;7.904;2023-05-07T08:58:06;2.60;;;1.50;;
46391;SDS011;32098;49.448;7.904;2023-05-07T09:00:36;1.65;;;1.55;;
46391;SDS011;32098;49.448;7.904;2023-05-07T09:03:06;2.53;;;1.40;;
46391;SDS011;32098;49.448;7.904;2023-05-07T09:05:35;2.08;;;1.48;;
46391;SDS011;32098;49.448;7.904;2023-05-07T09:08:05;2.67;;;1.60;;
46391;SDS011;32098;49.448;7.904;2023-05-07T09:10:33;2.25;;;1.52;;
46391;SDS011;32098;49.448;7.904;2023-05-07T09:13:02;2.13;;;1.50;;
46391;SDS011;32098;49.448;7.904;2023-05-07T09:15:29;2.97;;;1.48;;
46391;SDS011;32098;49.448;7.904;2023-05-07T09:17:59;1.30;;;1.20;;
46391;SDS011;32098;49.448;7.904;2023-05-07T09:20:30;2.33;;;1.33;;
46391;SDS011;32098;49.448;7.904;2023-05-07T09:22:58;2.75;;;1.52;;
46391;SDS011;32098;49.448;7.904;2023-05-07T09:25:30;2.67;;;1.80;;
46391;SDS011;32098;49.448;7.904;2023-05-07T09:28:04;1.38;;;1.27;;
46391;SDS011;32098;49.448;7.904;2023-05-07T09:30:33;1.77;;;1.45;;
46391;SDS011;32098;49.448;7.904;2023-05-07T09:33:03;2.28;;;1.40;;
46391;SDS011;32098;49.448;7.904;2023-05-07T09:35:32;1.52;;;1.40;;
46391;SDS011;32098;49.448;7.904;2023-05-07T09:38:05;1.50;;;1.40;;
46391;SDS011;32098;49.448;7.904;2023-05-07T09:40:34;1.40;;;1.30;;
46391;SDS011;32098;49.448;7.904;2023-05-07T09:43:09;2.08;;;1.50;;
46391;SDS011;32098;49.448;7.904;2023-05-07T09:45:52;1.65;;;1.52;;
46391;SDS011;32098;49.448;7.904;2023-05-07T09:48:22;1.58;;;1.48;;
46391;SDS011;32098;49.448;7.904;2023-05-07T09:50:54;2.50;;;1.67;;
46391;SDS011;32098;49.448;7.904;2023-05-07T09:53:27;1.85;;;1.52;;
46391;SDS011;32098;49.448;7.904;2023-05-07T09:55:57;1.88;;;1.40;;
46391;SDS011;32098;49.448;7.904;2023-05-07T09:58:24;2.05;;;1.27;;
46391;SDS011;32098;49.448;7.904;2023-05-07T10:00:53;2.00;;;1.60;;
46391;SDS011;32098;49.448;7.904;2023-05-07T10:03:22;1.92;;;1.50;;
46391;SDS011;32098;49.448;7.904;2023-05-07T10:05:56;1.33;;;1.23;;
46391;SDS011;32098;49.448;7.904;2023-05-07T10:08:25;3.33;;;1.50;;
46391;SDS011;32098;49.448;7.904;2023-05-07T10:10:55;2.53;;;1.60;;
46391;SDS011;32098;49.448;7.904;2023-05-07T10:13:24;1.60;;;1.50;;
46391;SDS011;32098;49.448;7.904;2023-05-07T10:15:55;1.35;;;1.25;;
46391;SDS011;32098;49.448;7.904;2023-05-07T10:18:24;4.53;;;1.50;;
46391;SDS011;32098;49.448;7.904;2023-05-07T10:23:35;3.05;;;1.67;;
46391;SDS011;32098;49.448;7.904;2023-05-07T10:26:04;1.48;;;1.38;;
46391;SDS011;32098;49.448;7.904;2023-05-07T10:28:37;1.80;;;1.48;;
46391;SDS011;32098;49.448;7.904;2023-05-07T10:33:45;3.63;;;1.65;;
46391;SDS011;32098;49.448;7.904;2023-05-07T10:36:15;1.60;;;1.50;;
46391;SDS011;32098;49.448;7.904;2023-05-07T10:38:42;2.55;;;1.73;;
46391;SDS011;32098;49.448;7.904;2023-05-07T10:41:09;2.33;;;1.80;;
46391;SDS011;32098;49.448;7.904;2023-05-07T10:43:41;1.70;;;1.60;;
46391;SDS011;32098;49.448;7.904;2023-05-07T10:46:17;3.17;;;1.70;;
46391;SDS011;32098;49.448;7.904;2023-05-07T10:51:34;2.70;;;1.70;;
46391;SDS011;32098;49.448;7.904;2023-05-07T10:56:51;2.63;;;1.70;;
46391;SDS011;32098;49.448;7.904;2023-05-07T11:01:54;4.30;;;2.05;;
46391;SDS011;32098;49.448;7.904;2023-05-07T11:04:29;3.60;;;1.83;;
46391;SDS011;32098;49.448;7.904;2023-05-07T11:10:05;4.45;;;2.20;;
46391;SDS011;32098;49.448;7.904;2023-05-07T11:15:15;2.10;;;1.90;;
46391;SDS011;32098;49.448;7.904;2023-05-07T11:17:59;2.50;;;1.63;;
46391;SDS011;32098;49.448;7.904;2023-05-07T11:20:48;2.33;;;1.85;;
46391;SDS011;32098;49.448;7.904;2023-05-07T11:26:22;2.35;;;2.15;;
46391;SDS011;32098;49.448;7.904;2023-05-07T11:28:48;2.15;;;1.95;;
46391;SDS011;32098;49.448;7.904;2023-05-07T11:31:15;3.10;;;1.98;;
46391;SDS011;32098;49.448;7.904;2023-05-07T11:33:47;5.07;;;2.10;;
46391;SDS011;32098;49.448;7.904;2023-05-07T11:36:15;2.42;;;2.10;;
46391;SDS011;32098;49.448;7.904;2023-05-07T11:38:46;2.45;;;2.08;;
46391;SDS011;32098;49.448;7.904;2023-05-07T11:41:13;3.08;;;2.08;;
46391;SDS011;32098;49.448;7.904;2023-05-07T11:43:53;2.92;;;2.28;;
46391;SDS011;32098;49.448;7.904;2023-05-07T11:46:21;3.33;;;1.73;;
46391;SDS011;32098;49.448;7.904;2023-05-07T11:48:48;2.70;;;1.88;;
46391;SDS011;32098;49.448;7.904;2023-05-07T11:51:18;3.03;;;2.20;;
46391;SDS011;32098;49.448;7.904;2023-05-07T11:53:45;3.25;;;1.95;;
46391;SDS011;32098;49.448;7.904;2023-05-07T11:56:12;2.55;;;2.35;;
46391;SDS011;32098;49.448;7.904;2023-05-07T11:58:41;2.60;;;2.40;;
46391;SDS011;32098;49.448;7.904;2023-05-07T12:01:09;2.75;;;2.40;;
46391;SDS011;32098;49.448;7.904;2023-05-07T12:03:37;2.75;;;2.30;;
46391;SDS011;32098;49.448;7.904;2023-05-07T12:06:09;3.58;;;2.30;;
46391;SDS011;32098;49.448;7.904;2023-05-07T12:08:36;4.00;;;2.28;;
46391;SDS011;32098;49.448;7.904;2023-05-07T12:11:06;2.33;;;2.13;;
46391;SDS011;32098;49.448;7.904;2023-05-07T12:13:34;3.00;;;2.40;;
46391;SDS011;32098;49.448;7.904;2023-05-07T12:16:01;2.85;;;2.00;;
46391;SDS011;32098;49.448;7.904;2023-05-07T12:18:31;3.67;;;2.67;;
46391;SDS011;32098;49.448;7.904;2023-05-07T12:20:59;3.00;;;2.50;;
46391;SDS011;32098;49.448;7.904;2023-05-07T12:23:25;2.97;;;2.50;;
46391;SDS011;32098;49.448;7.904;2023-05-07T12:25:52;3.72;;;2.72;;
46391;SDS011;32098;49.448;7.904;2023-05-07T12:28:19;3.83;;;2.80;;
46391;SDS011;32098;49.448;7.904;2023-05-07T12:30:46;4.32;;;3.22;;
46391;SDS011;32098;49.448;7.904;2023-05-07T12:33:17;4.63;;;2.90;;
46391;SDS011;32098;49.448;7.904;2023-05-07T12:35:46;3.83;;;2.72;;
46391;SDS011;32098;49.448;7.904;2023-05-07T12:38:14;3.53;;;3.08;;
46391;SDS011;32098;49.448;7.904;2023-05-07T12:40:47;4.95;;;3.20;;
46391;SDS011;32098;49.448;7.904;2023-05-07T12:43:20;7.05;;;3.72;;
46391;SDS011;32098;49.448;7.904;2023-05-07T12:45:50;5.13;;;3.40;;
46391;SDS011;32098;49.448;7.904;2023-05-07T12:48:17;5.63;;;3.53;;
46391;SDS011;32098;49.448;7.904;2023-05-07T12:50:48;5.65;;;3.42;;
46391;SDS011;32098;49.448;7.904;2023-05-07T12:53:23;3.92;;;3.20;;
46391;SDS011;32098;49.448;7.904;2023-05-07T12:55:51;7.72;;;4.20;;
46391;SDS011;32098;49.448;7.904;2023-05-07T12:58:20;8.57;;;4.43;;
46391;SDS011;32098;49.448;7.904;2023-05-07T13:00:47;8.75;;;4.45;;
46391;SDS011;32098;49.448;7.904;2023-05-07T13:03:23;6.07;;;3.97;;
46391;SDS011;32098;49.448;7.904;2023-05-07T13:05:51;6.55;;;3.83;;
46391;SDS011;32098;49.448;7.904;2023-05-07T13:08:25;8.98;;;3.67;;
46391;SDS011;32098;49.448;7.904;2023-05-07T13:10:53;7.10;;;3.78;;
46391;SDS011;32098;49.448;7.904;2023-05-07T13:13:20;8.80;;;4.18;;
46391;SDS011;32098;49.448;7.904;2023-05-07T13:15:47;10.00;;;4.53;;
46391;SDS011;32098;49.448;7.904;2023-05-07T13:18:14;9.90;;;3.95;;
46391;SDS011;32098;49.448;7.904;2023-05-07T13:20:41;11.15;;;5.07;;
46391;SDS011;32098;49.448;7.904;2023-05-07T13:23:07;7.40;;;4.32;;
46391;SDS011;32098;49.448;7.904;2023-05-07T13:25:33;9.00;;;4.47;;
46391;SDS011;32098;49.448;7.904;2023-05-07T13:28:02;10.13;;;4.85;;
46391;SDS011;32098;49.448;7.904;2023-05-07T13:30:36;6.85;;;4.55;;
46391;SDS011;32098;49.448;7.904;2023-05-07T13:33:03;11.82;;;6.45;;
46391;SDS011;32098;49.448;7.904;2023-05-07T13:35:29;9.05;;;5.55;;
46391;SDS011;32098;49.448;7.904;2023-05-07T13:37:56;8.85;;;5.07;;
46391;SDS011;32098;49.448;7.904;2023-05-07T13:40:22;9.63;;;6.00;;
46391;SDS011;32098;49.448;7.904;2023-05-07T13:42:49;8.18;;;6.15;;
46391;SDS011;32098;49.448;7.904;2023-05-07T13:45:19;7.00;;;4.50;;
46391;SDS011;32098;49.448;7.904;2023-05-07T13:47:46;9.45;;;4.97;;
46391;SDS011;32098;49.448;7.904;2023-05-07T13:50:15;10.10;;;4.63;;
46391;SDS011;32098;49.448;7.904;2023-05-07T13:52:42;6.75;;;4.90;;
46391;SDS011;32098;49.448;7.904;2023-05-07T13:55:12;8.68;;;5.75;;
46391;SDS011;32098;49.448;7.904;2023-05-07T13:57:39;7.22;;;5.53;;
46391;SDS011;32098;49.448;7.904;2023-05-07T14:00:06;8.73;;;5.40;;
46391;SDS011;32098;49.448;7.904;2023-05-07T14:02:40;8.27;;;4.53;;
46391;SDS011;32098;49.448;7.904;2023-05-07T14:05:07;5.93;;;3.97;;
46391;SDS011;32098;49.448;7.904;2023-05-07T14:07:35;4.63;;;3.60;;
46391;SDS011;32098;49.448;7.904;2023-05-07T14:10:02;4.35;;;3.08;;
46391;SDS011;32098;49.448;7.904;2023-05-07T14:12:29;6.95;;;3.30;;
46391;SDS011;32098;49.448;7.904;2023-05-07T14:14:55;7.47;;;3.40;;
46391;SDS011;32098;49.448;7.904;2023-05-07T14:17:22;6.38;;;4.00;;
46391;SDS011;32098;49.448;7.904;2023-05-07T14:19:51;7.63;;;3.80;;
46391;SDS011;32098;49.448;7.904;2023-05-07T14:22:20;5.32;;;3.80;;
46391;SDS011;32098;49.448;7.904;2023-05-07T14:24:48;7.20;;;4.03;;
46391;SDS011;32098;49.448;7.904;2023-05-07T14:27:35;6.85;;;3.63;;
46391;SDS011;32098;49.448;7.904;2023-05-07T14:30:02;5.75;;;3.78;;
46391;SDS011;32098;49.448;7.904;2023-05-07T14:32:28;5.35;;;3.35;;
46391;SDS011;32098;49.448;7.904;2023-05-07T14:34:55;8.23;;;4.15;;
46391;SDS011;32098;49.448;7.904;2023-05-07T14:37:21;6.07;;;3.40;;
46391;SDS011;32098;49.448;7.904;2023-05-07T14:39:50;5.95;;;3.53;;
46391;SDS011;32098;49.448;7.904;2023-05-07T14:42:16;4.55;;;3.30;;
46391;SDS011;32098;49.448;7.904;2023-05-07T14:44:44;5.65;;;3.78;;
46391;SDS011;32098;49.448;7.904;2023-05-07T14:47:12;7.03;;;3.50;;
46391;SDS011;32098;49.448;7.904;2023-05-07T14:49:39;5.45;;;3.47;;
46391;SDS011;32098;49.448;7.904;2023-05-07T14:52:06;6.45;;;3.50;;
46391;SDS011;32098;49.448;7.904;2023-05-07T14:54:34;5.60;;;3.30;;
46391;SDS011;32098;49.448;7.904;2023-05-07T14:57:04;5.93;;;3.17;;
46391;SDS011;32098;49.448;7.904;2023-05-07T14:59:31;4.85;;;3.90;;
46391;SDS011;32098;49.448;7.904;2023-05-07T15:01:58;6.07;;;3.58;;
46391;SDS011;32098;49.448;7.904;2023-05-07T15:04:25;5.43;;;4.10;;
46391;SDS011;32098;49.448;7.904;2023-05-07T15:06:51;5.03;;;3.55;;
46391;SDS011;32098;49.448;7.904;2023-05-07T15:09:19;4.78;;;3.92;;
46391;SDS011;32098;49.448;7.904;2023-05-07T15:11:46;5.13;;;4.18;;
46391;SDS011;32098;49.448;7.904;2023-05-07T15:14:12;5.50;;;4.18;;
46391;SDS011;32098;49.448;7.904;2023-05-07T15:16:39;5.93;;;3.58;;
46391;SDS011;32098;49.448;7.904;2023-05-07T15:19:06;6.75;;;3.92;;
46391;SDS011;32098;49.448;7.904;2023-05-07T15:21:32;5.88;;;4.10;;